Time;durP1;ratioP1;P1;durP2;ratioP2;P2;SDS_P1;SDS_P2;PMS_P1;PMS_P2;Temp;Humidity;BMP_temperature;BMP_pressure;BME280_temperature;BME280_humidity;BME280_pressure;Samples;Min_cycle;Max_cycle;Signal;HPM_P1;HPM_P2
2022/03/20 00:00:33;;;;;;;2.05;0.98;;;20.20;48.70;;;;;;5083118;28;20032;-71
2022/03/20 00:03:03;;;;;;;4.30;0.90;;;20.10;48.50;;;;;;5089270;28;20020;-71
2022/03/20 00:05:29;;;;;;;3.42;1.08;;;20.00;48.60;;;;;;5084535;28;20032;-71
2022/03/20 00:07:54;;;;;;;3.25;1.23;;;20.00;48.70;;;;;;5085640;28;20090;-71
2022/03/20 00:10:20;;;;;;;2.55;0.90;;;19.90;48.50;;;;;;5084890;28;20551;-72
2022/03/20 00:12:46;;;;;;;3.38;0.82;;;19.90;48.50;;;;;;5084748;28;20044;-72
2022/03/20 00:15:12;;;;;;;3.65;1.00;;;19.90;48.30;;;;;;5084830;28;20054;-72
2022/03/20 00:17:37;;;;;;;3.03;0.80;;;19.80;48.40;;;;;;5086415;28;20492;-75
2022/03/20 00:20:05;;;;;;;1.85;0.80;;;19.80;48.40;;;;;;5084936;28;20020;-71
2022/03/20 00:22:32;;;;;;;2.55;0.80;;;19.80;48.40;;;;;;5083971;28;20030;-71
2022/03/20 00:24:58;;;;;;;3.50;1.00;;;19.80;48.40;;;;;;5084129;28;20032;-72
2022/03/20 00:27:24;;;;;;;2.72;1.00;;;19.70;48.30;;;;;;5084067;28;20016;-71
2022/03/20 00:29:50;;;;;;;5.15;1.58;;;19.70;48.20;;;;;;5084330;28;20101;-71
2022/03/20 00:32:19;;;;;;;2.80;0.80;;;19.60;48.30;;;;;;5086854;28;20024;-72
2022/03/20 00:34:45;;;;;;;4.38;1.05;;;19.60;48.00;;;;;;5084207;28;20063;-71
2022/03/20 00:37:11;;;;;;;2.92;1.00;;;19.60;48.00;;;;;;5084470;28;20012;-71
2022/03/20 00:39:37;;;;;;;2.78;1.08;;;19.60;48.10;;;;;;5086085;28;20031;-72
2022/03/20 00:42:03;;;;;;;6.30;1.02;;;19.50;48.00;;;;;;5085513;28;20400;-71
2022/03/20 00:44:29;;;;;;;2.78;0.98;;;19.50;48.00;;;;;;5084037;28;20083;-72
2022/03/20 00:46:55;;;;;;;2.50;0.75;;;19.50;48.10;;;;;;5086445;28;20060;-72
2022/03/20 00:49:20;;;;;;;3.92;1.00;;;19.40;48.00;;;;;;5085746;28;20024;-72
2022/03/20 00:51:46;;;;;;;1.70;0.80;;;19.40;48.00;;;;;;5084226;28;20142;-71
2022/03/20 00:54:11;;;;;;;2.88;1.25;;;19.40;48.00;;;;;;5083309;28;20028;-71
2022/03/20 00:56:38;;;;;;;2.15;0.80;;;19.30;48.00;;;;;;5084180;28;20063;-71
2022/03/20 00:59:04;;;;;;;3.72;1.05;;;19.30;48.00;;;;;;5087102;28;20483;-71
2022/03/20 01:01:32;;;;;;;1.85;1.10;;;19.30;48.00;;;;;;5086207;28;20102;-71
2022/03/20 01:03:58;;;;;;;3.42;1.30;;;19.30;47.90;;;;;;5087734;28;20050;-71
2022/03/20 01:06:24;;;;;;;2.80;1.00;;;19.30;47.90;;;;;;5087546;28;20024;-71
2022/03/20 01:08:50;;;;;;;3.20;1.23;;;19.30;47.80;;;;;;5088464;28;20028;-71
2022/03/20 01:11:17;;;;;;;3.15;1.10;;;19.20;47.70;;;;;;5088525;28;20016;-71
2022/03/20 01:13:43;;;;;;;2.72;0.98;;;19.20;47.60;;;;;;5087991;28;20465;-71
2022/03/20 01:16:09;;;;;;;2.65;0.93;;;19.20;47.70;;;;;;5088964;28;20028;-71
2022/03/20 01:18:35;;;;;;;1.50;1.00;;;19.10;47.70;;;;;;5088833;28;20089;-70
2022/03/20 01:21:01;;;;;;;2.55;0.80;;;19.10;47.70;;;;;;5087163;28;20089;-71
2022/03/20 01:23:27;;;;;;;2.33;1.15;;;19.10;47.60;;;;;;5087071;28;20453;-70
2022/03/20 01:25:53;;;;;;;2.33;0.85;;;19.00;47.70;;;;;;5089689;28;20073;-72
2022/03/20 01:28:20;;;;;;;3.72;0.85;;;19.10;47.70;;;;;;5104037;28;20395;-71
2022/03/20 01:30:47;;;;;;;2.75;0.77;;;19.10;47.70;;;;;;5096088;28;20031;-71
2022/03/20 01:33:14;;;;;;;2.83;1.25;;;19.00;47.60;;;;;;5090389;28;20032;-71
2022/03/20 01:35:40;;;;;;;3.00;1.00;;;19.00;47.60;;;;;;5087346;28;20185;-70
2022/03/20 01:38:06;;;;;;;2.10;1.00;;;19.00;47.60;;;;;;5089872;28;20549;-71
2022/03/20 01:40:33;;;;;;;2.72;0.95;;;18.90;47.40;;;;;;5090458;28;20107;-71
2022/03/20 01:42:58;;;;;;;2.53;0.90;;;18.90;47.40;;;;;;5087555;28;20035;-71
2022/03/20 01:45:25;;;;;;;2.40;0.70;;;18.90;47.40;;;;;;5087909;28;20024;-71
2022/03/20 01:47:52;;;;;;;1.83;0.70;;;18.90;47.30;;;;;;5090299;28;20043;-71
2022/03/20 01:50:22;;;;;;;2.67;0.98;;;18.90;47.50;;;;;;5087713;28;20024;-72
2022/03/20 01:52:50;;;;;;;2.10;0.90;;;18.80;47.40;;;;;;5087955;28;20110;-72
2022/03/20 01:55:17;;;;;;;3.28;0.88;;;18.80;47.50;;;;;;5088746;28;20024;-71
2022/03/20 01:57:44;;;;;;;2.38;0.98;;;18.80;47.50;;;;;;5090689;28;20024;-71
2022/03/20 02:00:12;;;;;;;3.90;1.00;;;18.80;47.40;;;;;;5110509;28;20015;-70
2022/03/20 02:02:37;;;;;;;2.50;1.02;;;18.80;47.50;;;;;;5112837;28;20063;-72
2022/03/20 02:05:05;;;;;;;2.35;0.98;;;18.70;47.40;;;;;;5105763;28;20255;-71
2022/03/20 02:07:34;;;;;;;4.57;1.30;;;18.70;47.50;;;;;;5084956;28;20476;-71
2022/03/20 02:10:03;;;;;;;4.03;1.17;;;18.70;47.50;;;;;;5087564;28;20021;-72
2022/03/20 02:12:29;;;;;;;3.78;1.08;;;18.70;47.60;;;;;;5086342;28;20028;-71
2022/03/20 02:15:01;;;;;;;1.52;0.70;;;18.70;47.60;;;;;;5085383;28;20031;-72
2022/03/20 02:17:29;;;;;;;2.97;0.95;;;18.70;47.70;;;;;;5090271;28;20073;-71
2022/03/20 02:19:56;;;;;;;3.58;1.30;;;18.60;47.70;;;;;;5087893;28;20034;-70
2022/03/20 02:22:21;;;;;;;2.90;1.05;;;18.60;47.80;;;;;;5085782;28;20108;-72
2022/03/20 02:24:49;;;;;;;2.85;1.35;;;18.60;47.80;;;;;;5084991;28;20466;-71
2022/03/20 02:27:24;;;;;;;3.08;1.10;;;18.60;47.80;;;;;;5086488;28;20024;-70
2022/03/20 02:29:58;;;;;;;1.77;0.98;;;18.60;47.80;;;;;;5085092;28;20028;-71
2022/03/20 02:32:32;;;;;;;2.65;1.23;;;18.50;47.80;;;;;;5087304;28;20496;-71
2022/03/20 02:35:04;;;;;;;2.70;1.00;;;18.50;47.70;;;;;;5086024;28;21253;-70
2022/03/20 02:37:30;;;;;;;3.58;1.60;;;18.50;47.70;;;;;;5085202;28;20108;-70
2022/03/20 02:39:58;;;;;;;2.15;1.15;;;18.50;47.70;;;;;;5087646;28;20020;-71
2022/03/20 02:42:26;;;;;;;2.20;0.80;;;18.50;47.80;;;;;;5087230;28;20099;-72
2022/03/20 02:45:05;;;;;;;2.30;1.15;;;18.50;47.80;;;;;;5086278;28;20107;-70
2022/03/20 02:47:42;;;;;;;2.85;1.27;;;18.40;47.80;;;;;;5086974;28;20105;-70
2022/03/20 02:50:13;;;;;;;2.83;1.02;;;18.40;48.50;;;;;;5087053;28;20418;-70
2022/03/20 02:52:51;;;;;;;2.90;1.38;;;18.40;50.20;;;;;;5085709;28;20075;-71
2022/03/20 02:55:32;;;;;;;2.85;1.13;;;18.40;51.70;;;;;;5085950;28;20017;-70
2022/03/20 02:58:01;;;;;;;2.72;0.95;;;18.40;51.50;;;;;;5085632;28;20020;-70
2022/03/20 03:00:30;;;;;;;2.05;0.80;;;18.40;51.30;;;;;;5086175;28;20028;-71
2022/03/20 03:02:58;;;;;;;2.90;1.20;;;18.30;51.30;;;;;;5087268;28;20024;-71
2022/03/20 03:05:30;;;;;;;2.40;1.05;;;18.30;51.10;;;;;;5085090;28;21171;-71
2022/03/20 03:11:01;;;;;;;3.47;1.30;;;18.30;51.30;;;;;;5086084;28;20082;-70
2022/03/20 03:13:28;;;;;;;2.67;1.20;;;18.30;51.20;;;;;;5084730;28;20039;-71
2022/03/20 03:15:56;;;;;;;2.55;1.00;;;18.20;50.80;;;;;;5086645;28;20032;-70
2022/03/20 03:18:22;;;;;;;3.28;1.40;;;18.20;51.10;;;;;;5087901;28;20087;-70
2022/03/20 03:20:49;;;;;;;4.20;1.13;;;18.20;51.10;;;;;;5085295;28;20491;-71
2022/03/20 03:23:15;;;;;;;3.05;1.20;;;18.20;50.70;;;;;;5086129;28;20392;-70
2022/03/20 03:25:42;;;;;;;4.22;1.65;;;18.30;50.60;;;;;;5085565;28;20040;-70
2022/03/20 03:28:09;;;;;;;2.72;1.17;;;18.20;50.00;;;;;;5085040;28;20028;-70
2022/03/20 03:30:40;;;;;;;6.05;1.35;;;18.20;49.70;;;;;;5084512;28;20484;-70
2022/03/20 03:33:06;;;;;;;2.90;1.15;;;18.20;49.60;;;;;;5084905;28;20036;-72
2022/03/20 03:35:43;;;;;;;3.53;1.30;;;18.20;49.60;;;;;;5084855;28;20041;-70
2022/03/20 03:38:14;;;;;;;3.83;1.30;;;18.20;49.40;;;;;;5084118;28;20032;-71
2022/03/20 03:40:41;;;;;;;2.75;1.38;;;18.20;49.40;;;;;;5088383;28;20074;-75
2022/03/20 03:43:07;;;;;;;2.88;1.23;;;18.20;49.30;;;;;;5085135;28;20389;-75
2022/03/20 03:45:34;;;;;;;3.50;1.25;;;18.20;49.30;;;;;;5086185;28;20027;-73
2022/03/20 03:48:00;;;;;;;3.63;1.33;;;18.20;49.40;;;;;;5087198;28;20395;-70
2022/03/20 03:50:26;;;;;;;3.28;1.40;;;18.20;49.40;;;;;;5085690;28;20100;-71
2022/03/20 03:52:51;;;;;;;3.50;1.30;;;18.20;49.40;;;;;;5084881;28;20508;-70
2022/03/20 03:55:18;;;;;;;3.05;1.42;;;18.20;49.40;;;;;;5085596;28;20068;-71
2022/03/20 03:57:48;;;;;;;4.78;1.95;;;18.20;49.40;;;;;;5085096;28;20039;-71
2022/03/20 04:00:16;;;;;;;4.20;1.27;;;18.20;49.40;;;;;;5084651;28;20112;-70
2022/03/20 04:02:42;;;;;;;3.17;1.35;;;18.20;49.40;;;;;;5084722;28;20032;-70
2022/03/20 04:05:09;;;;;;;4.05;1.40;;;18.20;49.30;;;;;;5084275;28;20020;-71
2022/03/20 04:07:35;;;;;;;7.60;1.30;;;18.20;49.30;;;;;;5084076;28;20059;-71
2022/03/20 04:10:03;;;;;;;5.32;1.50;;;18.20;49.30;;;;;;5084563;28;20032;-72
2022/03/20 04:12:29;;;;;;;3.30;1.13;;;18.20;49.30;;;;;;5083949;28;20040;-71
2022/03/20 04:14:57;;;;;;;4.93;1.40;;;18.20;49.20;;;;;;5084053;28;20020;-71
2022/03/20 04:17:23;;;;;;;3.40;1.52;;;18.20;49.20;;;;;;5088427;28;20531;-72
2022/03/20 04:19:48;;;;;;;5.43;1.38;;;18.20;49.20;;;;;;5085320;28;20054;-70
2022/03/20 04:22:14;;;;;;;6.18;1.30;;;18.20;49.20;;;;;;5086024;28;20475;-70
2022/03/20 04:24:40;;;;;;;4.22;1.65;;;18.20;49.20;;;;;;5083076;28;20499;-73
2022/03/20 04:27:06;;;;;;;2.97;1.20;;;18.20;49.20;;;;;;5083593;28;20060;-74
2022/03/20 04:29:32;;;;;;;2.75;1.13;;;18.20;49.10;;;;;;5084360;28;20123;-71
2022/03/20 04:31:58;;;;;;;4.93;1.73;;;18.20;49.20;;;;;;5084573;28;20032;-70
2022/03/20 04:34:27;;;;;;;3.33;1.60;;;18.20;49.20;;;;;;5087241;28;20031;-72
2022/03/20 04:36:56;;;;;;;3.58;1.48;;;18.20;49.10;;;;;;5088215;28;20020;-73
2022/03/20 04:39:22;;;;;;;3.28;1.30;;;18.20;49.10;;;;;;5088993;28;20024;-71
2022/03/20 04:41:48;;;;;;;4.20;1.17;;;18.20;49.10;;;;;;5089594;28;20108;-71
2022/03/20 04:44:13;;;;;;;3.83;1.08;;;18.20;49.10;;;;;;5088610;28;21233;-73
2022/03/20 04:46:40;;;;;;;2.65;1.42;;;18.20;49.00;;;;;;5090546;28;20063;-72
2022/03/20 05:00:06;;;;;;;3.65;1.65;;;18.20;48.90;;;;;;5087855;28;20437;-71
2022/03/20 05:02:33;;;;;;;3.38;1.65;;;18.20;48.90;;;;;;5088204;28;20028;-70
2022/03/20 05:04:59;;;;;;;5.20;1.45;;;18.20;48.90;;;;;;5087412;28;20024;-70
2022/03/20 05:07:24;;;;;;;3.67;1.65;;;18.20;48.80;;;;;;5087675;28;20027;-71
2022/03/20 05:15:18;;;;;;;3.38;1.45;;;18.20;48.70;;;;;;5088206;28;20081;-73
2022/03/20 05:17:44;;;;;;;4.07;2.03;;;18.20;48.70;;;;;;5089905;28;20028;-72
2022/03/20 05:20:10;;;;;;;7.72;2.10;;;18.20;48.60;;;;;;5087465;28;20131;-75
2022/03/20 05:22:40;;;;;;;3.70;1.63;;;18.20;48.60;;;;;;5087954;28;20123;-74
2022/03/20 05:25:09;;;;;;;3.55;1.58;;;18.20;48.60;;;;;;5087925;28;20071;-73
2022/03/20 05:27:35;;;;;;;4.28;1.60;;;18.20;48.60;;;;;;5087084;28;20020;-74
2022/03/20 05:30:05;;;;;;;3.65;1.50;;;18.20;48.60;;;;;;5087668;28;20028;-73
2022/03/20 05:32:32;;;;;;;3.63;1.70;;;18.20;48.50;;;;;;5086979;28;20032;-72
2022/03/20 05:34:59;;;;;;;4.28;1.98;;;18.20;48.50;;;;;;5087961;28;20039;-70
2022/03/20 05:37:25;;;;;;;3.55;1.55;;;18.20;48.50;;;;;;5087149;28;20034;-70
2022/03/20 05:39:50;;;;;;;3.92;1.70;;;18.20;48.50;;;;;;5087835;28;20024;-72
2022/03/20 05:42:16;;;;;;;3.45;1.80;;;18.20;48.50;;;;;;5088434;28;20035;-72
2022/03/20 05:44:44;;;;;;;3.17;1.13;;;18.20;48.70;;;;;;5087788;28;20545;-71
2022/03/20 05:47:10;;;;;;;4.22;1.80;;;18.20;48.50;;;;;;5090965;28;20055;-71
2022/03/20 05:49:36;;;;;;;5.32;1.80;;;18.20;48.50;;;;;;5087437;28;20039;-72
2022/03/20 05:52:02;;;;;;;5.65;2.63;;;18.20;48.50;;;;;;5087955;28;20028;-75
2022/03/20 05:54:28;;;;;;;4.55;1.70;;;18.20;48.50;;;;;;5087976;28;20036;-72
2022/03/20 05:59:38;;;;;;;4.07;1.83;;;18.20;48.50;;;;;;5086278;28;20549;-75
2022/03/20 06:02:04;;;;;;;3.10;1.63;;;18.20;48.40;;;;;;5088209;28;20024;-76
2022/03/20 06:04:31;;;;;;;4.63;1.58;;;18.20;48.40;;;;;;5086317;28;20020;-72
2022/03/20 06:06:58;;;;;;;4.03;1.60;;;18.20;48.40;;;;;;5086719;28;20031;-72
2022/03/20 06:09:23;;;;;;;3.83;2.08;;;18.20;48.30;;;;;;5085710;28;20096;-71
2022/03/20 06:11:49;;;;;;;2.75;1.55;;;18.20;48.30;;;;;;5088162;28;20024;-70
2022/03/20 06:14:17;;;;;;;5.10;2.00;;;18.20;48.30;;;;;;5085063;28;20034;-70
2022/03/20 06:16:47;;;;;;;5.03;2.25;;;18.20;48.30;;;;;;5089303;28;20098;-70
2022/03/20 06:19:15;;;;;;;3.38;1.80;;;18.20;48.20;;;;;;5087586;28;20036;-70
2022/03/20 06:21:42;;;;;;;4.80;2.30;;;18.20;48.30;;;;;;5087108;28;20024;-77
2022/03/20 06:24:08;;;;;;;3.83;1.85;;;18.20;48.20;;;;;;5086290;28;20027;-73
2022/03/20 06:26:34;;;;;;;4.65;1.85;;;18.20;48.20;;;;;;5085896;28;20502;-71
2022/03/20 06:29:00;;;;;;;5.25;1.70;;;18.20;48.20;;;;;;5086765;28;20444;-70
2022/03/20 06:31:26;;;;;;;4.68;2.10;;;18.20;48.20;;;;;;5086018;28;20078;-70
2022/03/20 06:33:53;;;;;;;4.65;2.25;;;18.20;48.10;;;;;;5086080;28;20039;-70
2022/03/20 06:36:19;;;;;;;3.95;2.05;;;18.20;48.00;;;;;;5086636;28;20109;-70
2022/03/20 06:38:45;;;;;;;4.00;2.20;;;18.20;48.00;;;;;;5086726;28;20462;-71
2022/03/20 06:41:11;;;;;;;5.28;2.33;;;18.20;48.00;;;;;;5089123;28;20028;-70
2022/03/20 06:43:37;;;;;;;4.25;1.98;;;18.20;48.00;;;;;;5086386;28;20057;-71
2022/03/20 06:46:04;;;;;;;4.03;1.65;;;18.20;48.00;;;;;;5087816;28;20455;-70
2022/03/20 06:48:30;;;;;;;4.10;1.95;;;18.20;48.00;;;;;;5087555;28;20094;-71
2022/03/20 06:50:56;;;;;;;3.33;2.08;;;18.20;48.00;;;;;;5085837;28;20106;-71
2022/03/20 06:53:21;;;;;;;4.28;2.03;;;18.20;47.90;;;;;;5086411;28;20043;-74
2022/03/20 06:55:48;;;;;;;3.95;1.98;;;18.20;47.90;;;;;;5084513;28;20039;-72
2022/03/20 06:58:13;;;;;;;3.03;1.88;;;18.20;47.90;;;;;;5085966;28;20031;-71
2022/03/20 07:00:40;;;;;;;4.28;1.90;;;18.20;47.90;;;;;;5086275;28;20031;-73
2022/03/20 07:03:07;;;;;;;3.78;2.08;;;18.20;47.80;;;;;;5086063;28;20097;-71
2022/03/20 07:05:34;;;;;;;4.43;2.30;;;18.20;47.90;;;;;;5085798;28;20020;-71
2022/03/20 07:08:00;;;;;;;4.05;1.98;;;18.20;48.00;;;;;;5085487;28;20032;-73
2022/03/20 07:10:27;;;;;;;5.35;2.13;;;18.20;48.00;;;;;;5086002;28;20028;-69
2022/03/20 07:15:39;;;;;;;6.82;2.20;;;18.30;48.20;;;;;;5085544;28;20030;-71
2022/03/20 07:18:04;;;;;;;6.03;1.88;;;18.30;48.30;;;;;;5087513;28;20020;-72
2022/03/20 07:20:30;;;;;;;4.18;2.28;;;18.30;48.30;;;;;;5085885;28;20038;-73
2022/03/20 07:22:56;;;;;;;4.60;2.30;;;18.30;48.40;;;;;;5086235;28;20048;-71
2022/03/20 07:30:49;;;;;;;6.05;2.33;;;18.30;48.70;;;;;;5084865;28;20026;-72
2022/03/20 07:33:15;;;;;;;4.75;2.35;;;18.30;48.80;;;;;;5085950;28;20039;-74
2022/03/20 07:35:42;;;;;;;6.93;2.33;;;18.40;48.80;;;;;;5084929;28;20024;-74
2022/03/20 07:38:08;;;;;;;4.75;1.95;;;18.40;49.30;;;;;;5085652;28;20034;-72
2022/03/20 07:40:34;;;;;;;6.60;2.70;;;18.40;49.50;;;;;;5088224;28;20020;-72
2022/03/20 07:42:59;;;;;;;3.22;2.08;;;18.40;49.50;;;;;;5084791;28;20042;-75
2022/03/20 07:45:25;;;;;;;5.82;2.15;;;18.40;49.50;;;;;;5086557;28;20392;-73
2022/03/20 07:47:50;;;;;;;5.05;2.78;;;18.40;49.60;;;;;;5088774;28;20038;-73
2022/03/20 07:50:16;;;;;;;5.65;2.15;;;18.40;49.60;;;;;;5084812;28;20024;-73
2022/03/20 07:52:42;;;;;;;4.95;2.08;;;18.50;50.10;;;;;;5086613;28;20044;-73
2022/03/20 07:55:08;;;;;;;10.68;2.70;;;18.50;50.20;;;;;;5084003;28;20103;-73
2022/03/20 07:57:40;;;;;;;6.75;2.30;;;18.50;50.60;;;;;;5084075;28;20021;-72
2022/03/20 08:00:06;;;;;;;6.40;2.75;;;18.50;50.70;;;;;;5086154;28;20028;-72
2022/03/20 08:02:32;;;;;;;5.32;2.47;;;18.50;50.80;;;;;;5084819;28;20024;-71
2022/03/20 08:04:58;;;;;;;8.27;2.60;;;18.50;50.90;;;;;;5085391;28;20093;-72
2022/03/20 08:07:24;;;;;;;8.15;2.63;;;18.50;51.00;;;;;;5086256;28;20159;-71
2022/03/20 08:09:50;;;;;;;6.10;2.60;;;18.50;50.90;;;;;;5087428;28;20024;-73
2022/03/20 08:12:16;;;;;;;9.23;4.10;;;18.50;50.80;;;;;;5087185;28;20388;-71
2022/03/20 08:14:41;;;;;;;6.95;3.22;;;18.50;50.60;;;;;;5087815;28;20395;-73
2022/03/20 08:17:08;;;;;;;7.00;3.28;;;18.50;50.90;;;;;;5091123;28;20038;-71
2022/03/20 08:19:34;;;;;;;8.32;3.22;;;18.50;50.60;;;;;;5089020;28;20020;-73
2022/03/20 08:22:02;;;;;;;9.77;3.47;;;18.50;50.40;;;;;;5087868;28;20077;-72
2022/03/20 08:24:28;;;;;;;6.35;2.55;;;18.50;50.50;;;;;;5087534;28;20056;-73
2022/03/20 08:26:53;;;;;;;7.35;2.72;;;18.50;50.40;;;;;;5088449;28;20078;-78
2022/03/20 08:29:19;;;;;;;9.02;3.05;;;18.60;49.80;;;;;;5087177;28;20028;-73
2022/03/20 08:31:47;;;;;;;5.63;2.85;;;18.60;50.40;;;;;;5088318;28;20160;-73
2022/03/20 08:34:15;;;;;;;7.63;2.95;;;18.70;50.40;;;;;;5088018;28;20119;-72
2022/03/20 08:36:41;;;;;;;8.75;2.95;;;18.60;50.50;;;;;;5088161;28;20035;-73
2022/03/20 08:39:07;;;;;;;12.65;3.45;;;18.70;50.50;;;;;;5088498;28;20031;-72
2022/03/20 08:41:34;;;;;;;9.00;3.63;;;18.70;50.40;;;;;;5091340;28;20031;-73
2022/03/20 08:44:00;;;;;;;5.32;2.72;;;18.80;50.60;;;;;;5088268;28;20028;-72
2022/03/20 08:46:26;;;;;;;13.50;4.25;;;18.90;50.40;;;;;;5090303;28;20060;-73
2022/03/20 08:48:51;;;;;;;5.65;4.18;;;18.90;50.30;;;;;;5088312;28;20081;-73
2022/03/20 08:51:17;;;;;;;8.52;3.92;;;19.00;50.10;;;;;;5088826;28;20495;-70
2022/03/20 08:53:43;;;;;;;9.52;4.45;;;19.10;50.60;;;;;;5089241;28;20035;-71
2022/03/20 08:56:09;;;;;;;13.38;5.25;;;19.10;49.20;;;;;;5087902;28;20077;-73
2022/03/20 08:58:35;;;;;;;12.05;4.50;;;19.10;49.50;;;;;;5088652;28;20024;-71
2022/03/20 09:01:00;;;;;;;13.52;5.03;;;19.20;49.70;;;;;;5086974;28;20028;-70
2022/03/20 09:03:26;;;;;;;9.18;5.25;;;19.20;49.60;;;;;;5088010;28;20466;-73
2022/03/20 09:05:52;;;;;;;14.65;6.07;;;19.20;49.50;;;;;;5088594;28;20525;-72
2022/03/20 09:08:17;;;;;;;14.95;5.75;;;19.30;49.60;;;;;;5087480;28;20028;-72
2022/03/20 09:10:43;;;;;;;11.48;5.65;;;19.30;49.30;;;;;;5089386;28;20055;-74
2022/03/20 09:13:09;;;;;;;10.90;6.57;;;19.40;49.40;;;;;;5088336;28;20032;-73
2022/03/20 09:15:34;;;;;;;13.32;6.03;;;19.40;49.20;;;;;;5089807;28;20142;-73
2022/03/20 09:20:46;;;;;;;9.35;5.90;;;19.60;49.50;;;;;;5087655;28;20505;-73
2022/03/20 09:23:13;;;;;;;12.38;5.63;;;19.60;49.50;;;;;;5088449;28;20037;-72
2022/03/20 09:25:39;;;;;;;10.95;6.38;;;19.70;49.40;;;;;;5087989;28;20039;-73
2022/03/20 09:28:07;;;;;;;9.38;6.50;;;19.70;49.10;;;;;;5087293;28;20032;-73
2022/03/20 09:30:34;;;;;;;13.20;5.45;;;19.80;49.30;;;;;;5086868;28;20042;-74
2022/03/20 09:33:05;;;;;;;10.93;6.18;;;19.90;50.70;;;;;;5086759;28;20036;-77
2022/03/20 09:35:31;;;;;;;8.48;6.38;;;20.00;49.70;;;;;;5087194;28;20156;-73
2022/03/20 09:37:57;;;;;;;9.82;6.20;;;20.20;49.30;;;;;;5088047;28;20373;-72
2022/03/20 09:40:24;;;;;;;7.13;5.10;;;;;;;;;;5089423;28;20065;-73
2022/03/20 09:42:51;;;;;;;8.90;6.30;;;;;;;;;;5086731;28;20040;-73
2022/03/20 09:45:18;;;;;;;7.88;6.15;;;20.10;47.20;;;;;;5087962;28;20110;-74
2022/03/20 09:47:44;;;;;;;9.20;5.93;;;20.10;48.10;;;;;;5089097;28;20111;-71
2022/03/20 09:50:11;;;;;;;12.25;6.38;;;;;;;;;;5087564;28;20559;-74
2022/03/20 09:52:37;;;;;;;9.13;6.07;;;;;;;;;;5086872;28;20111;-73
2022/03/20 09:55:04;;;;;;;10.27;6.00;;;;;;;;;;5087739;28;20024;-73
2022/03/20 09:57:31;;;;;;;9.88;5.70;;;;;;;;;;5087700;28;20091;-73
2022/03/20 09:59:58;;;;;;;8.70;6.35;;;;;;;;;;5087262;28;20388;-74
2022/03/20 10:02:27;;;;;;;9.02;5.88;;;;;;;;;;5086564;28;20032;-73
2022/03/20 10:04:53;;;;;;;8.57;5.22;;;;;;;;;;5086184;28;20024;-71
2022/03/20 10:07:20;;;;;;;12.38;5.53;;;;;;;;;;5087686;28;20028;-74
2022/03/20 10:10:05;;;;;;;10.20;5.65;;;;;;;;;;5085155;28;20035;-73
2022/03/20 10:12:35;;;;;;;9.40;5.80;;;;;;;;;;5085968;28;20085;-73
2022/03/20 10:15:02;;;;;;;10.75;6.22;;;;;;;;;;5087119;28;20020;-72
2022/03/20 10:17:29;;;;;;;12.63;5.80;;;;;;;;;;5088924;28;20020;-71
2022/03/20 10:20:11;;;;;;;11.40;5.82;;;;;;;;;;5086632;28;20498;-70
2022/03/20 10:22:37;;;;;;;10.32;6.43;;;;;;;;;;5087480;28;20073;-73
2022/03/20 10:25:04;;;;;;;11.02;6.40;;;;;;;;;;5086849;28;20031;-70
2022/03/20 10:27:30;;;;;;;17.45;6.47;;;;;;;;;;5086665;28;20460;-71
2022/03/20 10:29:58;;;;;;;11.25;6.40;;;;;;;;;;5085796;28;20059;-70
2022/03/20 10:32:25;;;;;;;11.93;6.20;;;;;;;;;;5085445;28;20028;-73
2022/03/20 10:34:52;;;;;;;10.73;6.28;;;;;;;;;;5085958;28;20028;-72
2022/03/20 10:37:21;;;;;;;12.20;6.75;;;;;;;;;;5085302;28;20457;-75
2022/03/20 10:39:47;;;;;;;10.43;6.70;;;;;;;;;;5088913;28;20028;-71
2022/03/20 10:42:14;;;;;;;9.95;6.00;;;;;;;;;;5086657;28;20035;-71
2022/03/20 10:44:41;;;;;;;10.05;6.30;;;;;;;;;;5085422;28;20024;-74
2022/03/20 10:47:16;;;;;;;10.10;6.38;;;;;;;;;;5089058;28;20038;-74
2022/03/20 10:49:42;;;;;;;;;;;;;;;;;;5094143;28;20024;-72
2022/03/20 10:52:10;;;;;;;10.48;6.22;;;;;;;;;;5089727;28;20022;-70
2022/03/20 10:54:44;;;;;;;9.18;6.00;;;;;;;;;;5089590;28;20618;-72
2022/03/20 10:57:11;;;;;;;7.97;5.45;;;;;;;;;;5086559;28;20032;-71
2022/03/20 10:59:38;;;;;;;8.68;5.70;;;;;;;;;;5086205;28;20442;-69
2022/03/20 11:02:08;;;;;;;6.88;5.18;;;;;;;;;;5086026;28;20032;-70
2022/03/20 11:04:35;;;;;;;6.75;4.65;;;;;;;;;;5085129;28;20415;-70
2022/03/20 11:07:07;;;;;;;7.28;5.40;;;;;;;;;;5086738;28;20115;-70
2022/03/20 11:09:33;;;;;;;13.95;6.03;;;;;;;;;;5083887;28;20036;-70
2022/03/20 11:12:00;;;;;;;8.15;5.35;;;;;;;;;;5088462;28;20472;-72
2022/03/20 11:14:27;;;;;;;11.65;5.80;;;;;;;;;;5103131;28;20035;-71
2022/03/20 11:17:02;;;;;;;10.75;5.45;;;;;;;;;;5090122;28;20029;-71
2022/03/20 11:19:30;;;;;;;8.15;5.72;;;;;;;;;;5101294;28;20016;-73
2022/03/20 11:22:00;;;;;;;10.05;5.65;;;;;;;;;;5111471;28;20085;-71
2022/03/20 11:24:27;;;;;;;8.30;5.80;;;;;;;;;;5090932;28;20488;-71
2022/03/20 11:26:53;;;;;;;8.35;5.85;;;;;;;;;;5071196;28;20100;-72
2022/03/20 11:29:23;;;;;;;6.93;5.00;;;;;;;;;;5084457;28;20023;-71
2022/03/20 11:31:49;;;;;;;9.40;6.05;;;;;;;;;;5111744;28;20015;-72
2022/03/20 11:34:16;;;;;;;8.10;5.68;;;;;;;;;;5111694;28;20490;-72
2022/03/20 11:37:01;;;;;;;7.88;5.90;;;;;;;;;;5112047;28;20031;-70
2022/03/20 11:39:28;;;;;;;8.75;6.38;;;;;;;;;;5090015;28;20052;-70
2022/03/20 11:42:12;;;;;;;6.82;5.38;;;;;;;;;;5103004;28;20027;-70
2022/03/20 11:44:50;;;;;;;7.53;5.82;;;;;;;;;;5092222;28;20073;-71
2022/03/20 11:47:16;;;;;;;7.25;5.18;;;;;;;;;;5101220;28;20403;-71
2022/03/20 11:49:42;;;;;;;7.50;5.55;;;;;;;;;;5099340;28;20035;-72
2022/03/20 11:52:13;;;;;;;8.75;5.80;;;;;;;;;;5108406;28;20461;-77
2022/03/20 11:54:42;;;;;;;10.27;6.35;;;;;;;;;;5070716;28;20052;-73
2022/03/20 11:57:29;;;;;;;7.82;5.88;;;;;;;;;;5070882;28;20031;-72
2022/03/20 11:59:56;;;;;;;7.70;5.85;;;;;;;;;;5087142;28;20387;-71
2022/03/20 12:02:46;;;;;;;8.38;5.88;;;;;;;;;;5090866;28;20031;-73
2022/03/20 12:05:16;;;;;;;8.35;5.80;;;;;;;;;;5091144;28;20066;-71
2022/03/20 12:07:57;;;;;;;8.98;6.28;;;;;;;;;;5091415;28;20055;-72
2022/03/20 12:10:29;;;;;;;10.07;6.43;;;;;;;;;;5090897;28;20407;-72
2022/03/20 12:13:08;;;;;;;7.03;5.78;;;;;;;;;;5091052;28;20024;-71
2022/03/20 12:15:41;;;;;;;7.60;6.35;;;;;;;;;;5089845;28;20620;-72
2022/03/20 12:18:10;;;;;;;9.25;7.13;;;;;;;;;;5089713;28;20437;-72
2022/03/20 12:21:02;;;;;;;8.00;6.30;;;;;;;;;;5089612;28;20036;-72
2022/03/20 12:23:40;;;;;;;8.38;6.45;;;;;;;;;;5094357;28;20016;-72
2022/03/20 12:26:30;;;;;;;8.13;5.72;;;;;;;;;;5103990;28;20096;-72
2022/03/20 12:29:16;;;;;;;8.93;6.18;;;;;;;;;;5090399;28;20440;-73
2022/03/20 12:32:15;;;;;;;8.73;5.97;;;;;;;;;;5091147;28;20024;-71
2022/03/20 12:34:46;;;;;;;8.82;6.28;;;;;;;;;;5055571;28;20395;-70
2022/03/20 12:37:30;;;;;;;7.70;6.22;;;;;;;;;;5089529;28;20032;-72
2022/03/20 12:39:57;;;;;;;8.10;6.22;;;;;;;;;;5089996;28;20165;-72
2022/03/20 12:42:23;;;;;;;9.77;6.38;;;;;;;;;;5089334;28;20028;-72
2022/03/20 12:44:50;;;;;;;7.88;6.47;;;;;;;;;;5089452;28;20031;-73
2022/03/20 12:47:17;;;;;;;9.05;6.13;;;;;;;;;;5090782;28;20022;-72
2022/03/20 12:49:43;;;;;;;8.00;6.38;;;;;;;;;;5089711;28;20028;-73
2022/03/20 12:52:10;;;;;;;11.65;6.97;;;;;;;;;;5090269;28;20030;-77
2022/03/20 12:54:36;;;;;;;7.93;6.13;;;;;;;;;;5094028;28;20480;-74
2022/03/20 12:57:04;;;;;;;7.18;6.05;;;;;;;;;;5094322;28;20024;-73
2022/03/20 12:59:30;;;;;;;8.40;6.30;;;;;;;;;;5094177;28;20016;-74
2022/03/20 13:01:57;;;;;;;8.55;6.63;;;;;;;;;;5094279;28;20417;-70
2022/03/20 13:04:23;;;;;;;7.63;6.25;;;;;;;;;;5094145;28;20031;-76
2022/03/20 13:06:50;;;;;;;8.13;6.25;;;;;;;;;;5093867;28;20506;-70
2022/03/20 13:09:16;;;;;;;9.18;6.65;;;;;;;;;;5092973;28;20070;-74
2022/03/20 13:11:51;;;;;;;8.40;6.60;;;;;;;;;;5094477;28;20027;-74
2022/03/20 13:14:17;;;;;;;9.63;7.00;;;;;;;;;;5093901;28;20047;-71
2022/03/20 13:16:51;;;;;;;7.95;6.30;;;;;;;;;;5094252;28;20270;-79
2022/03/20 13:19:26;;;;;;;8.93;6.20;;;;;;;;;;5092418;28;20395;-72
2022/03/20 13:21:52;;;;;;;8.82;6.75;;;;;;;;;;5093636;28;20027;-75
2022/03/20 13:24:32;;;;;;;8.82;7.30;;;;;;;;;;5093136;28;20020;-75
2022/03/20 13:26:59;;;;;;;8.57;6.93;;;;;;;;;;5093880;28;20043;-78
2022/03/20 13:29:25;;;;;;;8.95;7.10;;;;;;;;;;5093411;28;20674;-73
2022/03/20 13:32:00;;;;;;;8.52;6.95;;;;;;;;;;5093576;28;20032;-78
2022/03/20 13:34:26;;;;;;;9.23;6.60;;;;;;;;;;5093057;28;20089;-74
2022/03/20 13:36:52;;;;;;;7.32;6.15;;;;;;;;;;5092520;28;20099;-72
2022/03/20 13:39:19;;;;;;;7.65;6.22;;;;;;;;;;5107172;28;20024;-70
2022/03/20 13:41:46;;;;;;;9.55;6.65;;;;;;;;;;5113340;28;20027;-72
2022/03/20 13:44:12;;;;;;;8.25;6.53;;;;;;;;;;5093515;28;20105;-73
2022/03/20 13:46:38;;;;;;;9.18;6.90;;;;;;;;;;5091841;28;20039;-77
2022/03/20 13:49:08;;;;;;;8.82;6.38;;;;;;;;;;5093384;28;20054;-74
2022/03/20 13:51:40;;;;;;;9.52;6.35;;;;;;;;;;5093151;28;20032;-71
2022/03/20 13:54:22;;;;;;;8.68;6.88;;;;;;;;;;5093113;28;20130;-71